• Join FlightAware (Why Join?)
  • Login
  • US Flag GB Flag 
00:39 EST


 

Airport Tracker/Info


-or-


 

Live Flight TrackerFlight Track Log ✈ N515JM ✈ 22-Sep-2013 ✈ KCOS - KHPN

Flight Track Log - Related Links

Times and Time Zones

All times are in EDT time to prevent confusion due to time zone crossing. See the N515JM flight status page for this flight to view local times or setup timezone preferences in your user account.

Time Position Orientation Groundspeed Altitude Reporting Facility
EDT Latitude Longitude Course Direction KTS MPH feet Rate Location/Type
15:52 38.7272 -104.6986 68° East 229 264 9,300  Level Denver Center
15:53 38.7003 -104.6222 114° Southeast 255 293 12,400 2,520 Climbing Denver Center
15:54 38.6783 -104.5150 105° East 272 313 14,600 1,980 Climbing Denver Center
15:55 38.6542 -104.4078 106° East 315 362 16,600 2,220 Climbing Denver Center
15:56 38.6261 -104.2728 105° East 340 391 19,200 2,220 Climbing Denver Center
15:57 38.9934 -103.8086 68° East  Level Estimated
15:57 38.6006 -104.1531 105° East 356 410 21,300  Level Denver Center
15:58 38.5742 -104.0264 105° East 375 432 22,900 1,560 Climbing Denver Center
15:59 38.5436 -103.8719 104° East 396 456 24,600 1,440 Climbing Denver Center
16:00 38.5608 -103.7294 81° East 422 486 26,000 1,200 Climbing Denver Center
16:01 38.6061 -103.5619 71° East 443 510 27,100 960 Climbing Denver Center
16:02 38.6469 -103.4086 71° East 459 528 28,100 960 Climbing Denver Center
16:03 38.6889 -103.2517 71° East 467 537 29,100 960 Climbing Denver Center
16:04 38.7308 -103.0900 72° East 478 550 30,100 1,020 Climbing Denver Center
16:05 38.7831 -102.8947 71° East 485 558 31,300 1,020 Climbing Denver Center
16:06 38.8247 -102.7347 71° East 489 563 32,300 960 Climbing Denver Center
16:07 38.8656 -102.5758 72° East 490 564 33,300 900 Climbing Denver Center
16:08 38.9136 -102.3892 72° East 494 568 34,200 660 Climbing Denver Center
16:09 38.9558 -102.2261 72° East 500 575 34,700 480 Climbing Denver Center
16:10 38.9983 -102.0589 72° East 511 588 35,200 480 Climbing Denver Center
16:11 39.0481 -101.8606 72° East 521 600 35,700 480 Climbing Denver Center
16:12 39.0942 -101.6789 72° East 522 601 36,200 480 Climbing Denver Center
16:13 39.1428 -101.4797 72° East 522 601 36,800 480 Climbing Denver Center
16:14 39.1853 -101.3103 72° East 522 601 37,300 480 Climbing Denver Center
16:15 39.2331 -101.1100 73° East 523 602 37,800 480 Climbing Denver Center
16:16 39.2744 -100.9428 72° East 516 594 38,300 480 Climbing Denver Center
16:18 39.3217 -100.7478 73° East 513 590 38,900 300 Climbing Denver Center
16:19 39.3608 -100.5792 73° East 513 590 39,000  Climbing Denver Center
16:20 39.4081 -100.3819 73° East 515 593 39,000  Level Denver Center
16:21 39.4475 -100.2136 73° East 514 592 39,000  Level Denver Center
16:22 39.4928 -100.0167 73° East 513 590 39,000  Level Denver Center
16:23 39.5339 -99.8444 73° East 510 587 39,000  Level Denver Center
16:24 39.5731 -99.6669 74° East 513 590 39,000  Level Denver Center
16:25 39.6139 -99.4917 73° East 511 588 39,000  Level Denver Center
16:26 39.6539 -99.3139 74° East 513 590 39,000  Level Denver Center
16:27 39.7022 -99.1033 73° East 510 587 39,000  Level Denver Center
16:28 39.7411 -98.9261 74° East 511 588 39,000  Level Denver Center
16:29 39.7792 -98.7497 74° East 509 586 39,000  Level Denver Center
16:30 39.8178 -98.5733 74° East 509 586 39,000  Level Denver Center
16:31 39.8572 -98.3964 74° East 511 588 39,000  Level Denver Center
16:32 39.9164 -98.1136 75° East 511 588 39,000  Level Minneapolis Center
16:34 39.9556 -97.9350 74° East 513 590 39,000  Level Minneapolis Center
16:35 39.9928 -97.7572 75° East 511 588 39,000  Level Minneapolis Center
16:36 40.0300 -97.5783 75° East 512 589 39,000  Level Minneapolis Center
16:37 40.0744 -97.3628 75° East 513 590 39,000  Level Minneapolis Center
16:38 40.1050 -97.2108 75° East 512 589 39,000  Level Minneapolis Center
16:39 40.1486 -96.9967 75° East 510 587 39,000  Level Minneapolis Center
16:40 40.1856 -96.8178 75° East 510 587 39,000  Level Minneapolis Center
16:41 40.2203 -96.6383 76° East 510 587 39,000  Level Minneapolis Center
16:42 40.2556 -96.4606 75° East 509 586 39,000  Level Minneapolis Center
16:43 40.2911 -96.2803 75° East 511 588 39,000  Level Minneapolis Center
16:44 40.3258 -96.1017 76° East 510 587 39,000  Level Minneapolis Center
16:45 40.3675 -95.8847 76° East 512 589 39,000  Level Minneapolis Center
16:46 40.4028 -95.7047 76° East 513 590 39,000  Level Minneapolis Center
16:47 40.4361 -95.5264 76° East 509 586 39,000  Level Minneapolis Center
16:48 40.4689 -95.3489 76° East 505 581 39,000  Level Minneapolis Center
16:49 40.5025 -95.1686 76° East 508 585 39,000  Level Minneapolis Center
16:50 40.5419 -94.9539 76° East 507 583 39,000  Level Minneapolis Center
16:51 40.5753 -94.7744 76° East 506 582 39,000  Level Minneapolis Center
16:52 40.6075 -94.5942 77° East 508 585 39,000  Level Minneapolis Center
16:53 40.6417 -94.3978 77° East 505 581 39,000  Level Minneapolis Center
16:54 40.6733 -94.2192 77° East 504 580 39,000  Level Minneapolis Center
16:55 40.7047 -94.0403 77° East 505 581 39,000  Level Minneapolis Center
16:56 40.7356 -93.8619 77° East 504 580 39,000  Level Minneapolis Center
16:57 40.7675 -93.6817 77° East 505 581 39,000  Level Minneapolis Center
16:58 40.7964 -93.5036 78° East 503 579 39,000  Level Minneapolis Center
16:59 40.8331 -93.2889 77° East 502 578 39,000  Level Minneapolis Center
17:00 40.8633 -93.1092 77° East 502 578 39,000  Level Minneapolis Center
17:01 40.8936 -92.9308 77° East 501 577 39,000  Level Minneapolis Center
17:02 40.9231 -92.7514 78° East 500 575 39,000  Level Minneapolis Center
17:04 40.9517 -92.5714 78° East 500 575 39,000  Level Minneapolis Center
17:05 40.9856 -92.3567 78° East 500 575 39,000  Level Minneapolis Center
17:06 41.0125 -92.1800 79° East 497 572 39,000  Level Chicago Center
17:07 41.0458 -91.9672 78° East 494 568 39,000  Level Chicago Center
17:08 41.0725 -91.7897 79° East 496 571 39,000  Level Chicago Center
17:09 41.1011 -91.6031 78° East 491 565 39,000  Level Chicago Center
17:10 41.1275 -91.4261 79° East 488 562 39,000  Level Chicago Center
17:11 41.1542 -91.2494 79° East 488 562 39,000  Level Chicago Center
17:12 41.1794 -91.0733 79° East 486 559 39,000  Level Chicago Center
17:13 41.2050 -90.8967 79° East 487 560 39,000  Level Chicago Center
17:14 41.2311 -90.7186 79° East 490 564 39,000  Level Chicago Center
17:15 41.2617 -90.5056 79° East 487 560 39,000  Level Chicago Center
17:16 41.2867 -90.3281 79° East 487 560 39,000  Level Chicago Center
17:17 41.3097 -90.1494 80° East 487 560 39,000  Level Chicago Center
17:18 41.3353 -89.9692 79° East 492 566 39,000  Level Chicago Center
17:19 41.3603 -89.7894 79° East 491 565 39,000  Level Chicago Center
17:20 41.3842 -89.6094 80° East 493 567 39,000  Level Chicago Center
17:21 41.4078 -89.4261 80° East 499 574 39,000  Level Chicago Center
17:22 41.4356 -89.2119 80° East 491 565 39,000  Level Chicago Center
17:23 41.4553 -89.0397 81° East 479 551 39,000  Level Chicago Center
17:24 41.4792 -88.8594 80° East 493 567 39,000  Level Chicago Center
17:25 41.5011 -88.6814 81° East 490 564 39,000  Level Chicago Center
17:26 41.5231 -88.5014 81° East 490 564 39,000  Level Chicago Center
17:27 41.5500 -88.2828 81° East 492 566 39,000  Level Chicago Center
17:29 41.5736 -88.1000 80° East 493 567 39,000  Level Chicago Center
17:30 41.5947 -87.9167 81° East 490 564 39,000  Level Chicago Center
17:31 41.6144 -87.7381 82° East 487 560 39,000  Level Chicago Center
17:32 41.6342 -87.5611 81° East 483 556 39,000  Level Chicago Center
17:33 41.6536 -87.3867 81° East 478 550 39,000  Level Chicago Center
17:34 41.6736 -87.2108 81° East 479 551 39,000  Level Chicago Center
17:35 41.6961 -87.0017 82° East 476 548 39,000  Level Chicago Center
17:36 41.7150 -86.8267 82° East 477 549 39,000  Level Chicago Center
17:37 41.7347 -86.6419 82° East 477 549 39,000  Level Chicago Center
17:38 41.7519 -86.4658 82° East 478 550 39,000  Level Chicago Center
17:39 41.7708 -86.2889 82° East 480 552 39,000  Level Chicago Center
17:40 41.7894 -86.1114 82° East 482 555 39,000  Level Chicago Center
17:41 41.8075 -85.9339 82° East 481 554 39,000  Level Chicago Center
17:42 41.8267 -85.7542 82° East 484 557 39,000  Level Chicago Center
17:43 41.8447 -85.5731 82° East 484 557 39,000  Level Chicago Center
17:44 41.8631 -85.3908 82° East 486 559 39,000  Level Chicago Center
17:45 41.8842 -85.1736 82° East 486 559 39,000  Level Chicago Center
17:46 41.9028 -84.9914 82° East 492 566 39,000 180 Level Chicago Center
17:47 41.9219 -84.8111 82° East 492 566 39,400 420 Climbing Chicago Center
17:48 41.9400 -84.6325 82° East 485 558 39,900 480 Climbing Chicago Center
17:49 41.9575 -84.4561 82° East 480 552 40,400 480 Climbing Chicago Center
17:50 41.9686 -84.3492 82° East 481 554 40,700 360 Climbing Cleveland Center
17:51 41.9867 -84.1558 83° East 479 551 41,000 120 Climbing Cleveland Center
17:52 42.0050 -83.9778 82° East 486 559 41,000  Level Cleveland Center
17:53 42.0211 -83.7983 83° East 487 560 41,000  Level Cleveland Center
17:54 42.0392 -83.6203 82° East 487 560 41,000  Level Cleveland Center
17:55 42.0561 -83.4269 83° East 486 559 41,000  Level Cleveland Center
17:56 42.0731 -83.2453 83° East 486 559 41,000  Level Cleveland Center
17:57 42.0911 -83.0536 83° East 485 558 41,000  Level Cleveland Center
17:58 42.1078 -82.8761 83° East 482 555 41,000  Level Cleveland Center
17:59 42.1236 -82.6981 83° East 484 557 41,000  Level Cleveland Center
18:00 42.1422 -82.4833 83° East 483 556 41,000  Level Cleveland Center
18:01 42.1567 -82.3031 84° East 485 558 41,000  Level Cleveland Center
18:02 42.1719 -82.1225 83° East 489 563 41,000  Level Cleveland Center
18:03 42.1872 -81.9422 83° East 481 554 41,000  Level Cleveland Center
18:04 42.2006 -81.7625 84° East 479 551 41,000  Level Cleveland Center
18:05 42.2167 -81.5525 84° East 477 549 41,000  Level Cleveland Center
18:06 42.2311 -81.3722 84° East 478 550 41,000  Level Cleveland Center
18:07 42.2444 -81.1919 84° East 477 549 41,000  Level Cleveland Center
18:08 42.2572 -81.0108 84° East 479 551 41,000  Level Cleveland Center
18:09 42.2711 -80.8303 84° East 478 550 41,000  Level Cleveland Center
18:10 42.2831 -80.6481 85° East 482 555 41,000  Level Cleveland Center
18:12 42.2958 -80.4692 84° East 478 550 41,000  Level Cleveland Center
18:13 42.3075 -80.2847 85° East 486 559 41,000  Level Cleveland Center
18:14 42.3225 -80.0697 85° East 488 562 41,000  Level Cleveland Center
18:15 42.3333 -79.8889 85° East 482 555 41,000  Level Cleveland Center
18:16 42.3447 -79.7067 85° East 489 563 41,000  Level Cleveland Center
18:17 42.3553 -79.5256 85° East 486 559 41,000  Level Cleveland Center
18:18 42.3653 -79.3436 86° East 487 560 41,000  Level Cleveland Center
18:19 42.3758 -79.1619 85° East 487 560 41,000  Level Cleveland Center
18:20 42.3883 -78.9450 85° East 486 559 41,000  Level Cleveland Center
18:21 42.3981 -78.7578 86° East 483 556 41,000  Level Cleveland Center
18:22 42.4078 -78.5764 86° East 486 559 41,000 -180 Level Cleveland Center
18:23 42.4172 -78.3944 86° East 487 560 40,700 -420 Descending Cleveland Center
18:24 42.4261 -78.2097 86° East 492 566 40,200 -840 Descending Cleveland Center
18:25 42.4344 -78.0222 86° East 501 577 39,000 -1,440 Descending Cleveland Center
18:26 42.4428 -77.8153 87° East 494 568 37,200 -1,620 Descending Cleveland Center
18:27 42.4506 -77.6322 87° East 489 563 35,700 -1,500 Descending Cleveland Center
18:28 42.4592 -77.4414 86° East 493 567 34,200 -1,320 Descending Cleveland Center
18:29 42.4669 -77.2569 87° East 497 572 33,000 -600 Descending Cleveland Center
18:30 42.4747 -77.0342 87° East 496 571 33,000  Level Cleveland Center
18:31 42.4828 -76.8486 87° East 497 572 33,000  Level Cleveland Center
18:32 42.4878 -76.6864 88° East 507 583 33,000  Level Boston Center
18:33 42.4925 -76.4981 88° East 512 589 33,000 -60 Level Boston Center
18:34 42.4656 -76.3133 101° East 506 582 32,900 -900 Descending Boston Center
18:35 42.4297 -76.1422 106° East 506 582 31,300 -1,560 Descending Boston Center
18:36 42.3897 -75.9542 106° East 516 594 29,800 -1,500 Descending Boston Center
18:37 42.3517 -75.7667 105° East 521 600 28,300 -1,380 Descending Boston Center
18:38 42.3131 -75.5792 106° East 521 600 27,100 -1,800 Descending Boston Center
18:39 42.2764 -75.4006 105° East 514 592 24,800 -2,340 Descending Boston Center
18:40 42.2389 -75.2306 107° East 492 566 22,500 -2,280 Descending Boston Center
18:41 42.2031 -75.0719 107° East 468 539 20,200 -1,800 Descending Boston Center
18:42 42.1608 -74.9161 110° East 450 518 19,000 -660 Descending Boston Center
18:43 42.0992 -74.7736 120° Southeast 438 504 19,000 -300 Level Boston Center
18:44 42.0356 -74.6175 119° Southeast 433 498 18,500 -1,140 Descending Boston Center
18:45 41.9817 -74.4928 120° Southeast 433 498 16,800 -1,740 Descending Boston Center
18:46 41.9236 -74.3514 119° Southeast 409 471 15,100 -1,620 Descending Boston Center
18:47 41.8794 -74.2497 120° Southeast 369 425 13,600 -1,620 Descending Boston Center
18:48 41.8231 -74.1339 123° Southeast 345 397 11,900 -1,680 Descending Boston Center
18:49 41.7617 -74.0514 135° Southeast 323 372 10,300 -1,560 Descending Boston Center
18:50 41.6911 -74.0164 160° South 302 348 8,800 -1,440 Descending Boston Center
18:51 41.6106 -73.9700 157° South 294 338 7,500 -1,200 Descending Boston Center
18:52 41.5500 -73.9333 156° South 302 348 6,800 -1,020 Descending New York TRACON
18:53 41.4667 -73.9000 163° South 270 311 5,700 -1,020 Descending New York TRACON
18:54 41.4167 -73.8500 143° Southeast 271 312 4,800 -1,020 Descending New York TRACON
18:55 41.3500 -73.8000 151° Southeast 271 312 3,800 -900 Descending New York TRACON
18:56 41.2833 -73.7500 151° Southeast 257 296 3,000 -420 Descending New York TRACON
18:57 41.2333 -73.7000 143° Southeast 238 274 3,000  Level New York TRACON
18:58 41.1833 -73.6500 143° Southeast 237 273 3,000  Level New York TRACON
18:59 41.1333 -73.6000 143° Southeast 215 247 3,000 -300 Level New York TRACON
19:00 41.0833 -73.5667 153° Southeast 204 235 2,500 -540 Descending New York TRACON
19:01 41.0167 -73.5667 180° South 182 209 2,000 -300 Descending New York TRACON
19:02 40.9833 -73.5833 201° Southwest 188 216 2,000  Level New York TRACON
19:03 40.9667 -73.6333 246° West 137 158 2,000 -60 Level New York TRACON
19:04 41.0000 -73.6500 339° North 116 133 1,900 -480 Descending New York TRACON
19:05 41.0333 -73.6833 323° Northwest 110 127 1,100 -720 Descending New York TRACON
19:06 41.0500 -73.7000 323° Northwest 110 127 500 -720 Descending New York TRACON